sensor_id;sensor_type;location;lat;lon;timestamp;P1;durP1;ratioP1;P2;durP2;ratioP2
61642;SDS011;47551;52.506;4.678;2023-07-31T00:00:23;12.40;;;3.87;;
61642;SDS011;47551;52.506;4.678;2023-07-31T00:00:43;10.80;;;3.90;;
61642;SDS011;47551;52.506;4.678;2023-07-31T00:01:04;11.40;;;3.50;;
61642;SDS011;47551;52.506;4.678;2023-07-31T00:01:27;12.38;;;3.88;;
61642;SDS011;47551;52.506;4.678;2023-07-31T00:01:47;12.50;;;3.70;;
61642;SDS011;47551;52.506;4.678;2023-07-31T00:02:10;9.60;;;3.55;;
61642;SDS011;47551;52.506;4.678;2023-07-31T00:02:34;11.40;;;3.75;;
61642;SDS011;47551;52.506;4.678;2023-07-31T00:02:54;14.13;;;3.97;;
61642;SDS011;47551;52.506;4.678;2023-07-31T00:03:24;12.47;;;3.60;;
61642;SDS011;47551;52.506;4.678;2023-07-31T00:03:45;13.02;;;4.15;;
61642;SDS011;47551;52.506;4.678;2023-07-31T00:04:06;11.13;;;3.92;;
61642;SDS011;47551;52.506;4.678;2023-07-31T00:04:26;9.73;;;3.55;;
61642;SDS011;47551;52.506;4.678;2023-07-31T00:04:46;10.53;;;3.80;;
61642;SDS011;47551;52.506;4.678;2023-07-31T00:05:08;12.38;;;3.97;;
61642;SDS011;47551;52.506;4.678;2023-07-31T00:05:28;12.38;;;4.10;;
61642;SDS011;47551;52.506;4.678;2023-07-31T00:05:49;12.27;;;3.87;;
61642;SDS011;47551;52.506;4.678;2023-07-31T00:06:09;10.40;;;3.83;;
61642;SDS011;47551;52.506;4.678;2023-07-31T00:06:32;11.35;;;4.28;;
61642;SDS011;47551;52.506;4.678;2023-07-31T00:06:56;12.05;;;4.05;;
61642;SDS011;47551;52.506;4.678;2023-07-31T00:07:16;10.87;;;3.90;;
61642;SDS011;47551;52.506;4.678;2023-07-31T00:07:36;12.52;;;4.38;;
61642;SDS011;47551;52.506;4.678;2023-07-31T00:07:57;11.80;;;4.00;;
61642;SDS011;47551;52.506;4.678;2023-07-31T00:08:17;10.30;;;4.30;;
61642;SDS011;47551;52.506;4.678;2023-07-31T00:08:37;13.13;;;4.60;;
61642;SDS011;47551;52.506;4.678;2023-07-31T00:08:58;11.67;;;4.20;;
61642;SDS011;47551;52.506;4.678;2023-07-31T00:09:18;12.40;;;3.80;;
61642;SDS011;47551;52.506;4.678;2023-07-31T00:09:39;10.57;;;3.97;;
61642;SDS011;47551;52.506;4.678;2023-07-31T00:09:59;9.83;;;3.90;;
61642;SDS011;47551;52.506;4.678;2023-07-31T00:10:19;11.77;;;4.15;;
61642;SDS011;47551;52.506;4.678;2023-07-31T00:10:40;14.53;;;4.37;;
61642;SDS011;47551;52.506;4.678;2023-07-31T00:11:00;14.35;;;4.40;;
61642;SDS011;47551;52.506;4.678;2023-07-31T00:11:21;13.17;;;4.43;;
61642;SDS011;47551;52.506;4.678;2023-07-31T00:11:41;12.48;;;4.40;;
61642;SDS011;47551;52.506;4.678;2023-07-31T00:12:01;10.50;;;3.93;;
61642;SDS011;47551;52.506;4.678;2023-07-31T00:12:22;11.80;;;3.90;;
61642;SDS011;47551;52.506;4.678;2023-07-31T00:12:44;11.45;;;3.92;;
61642;SDS011;47551;52.506;4.678;2023-07-31T00:13:05;11.73;;;4.03;;
61642;SDS011;47551;52.506;4.678;2023-07-31T00:13:28;12.43;;;4.28;;
61642;SDS011;47551;52.506;4.678;2023-07-31T00:13:48;10.43;;;3.97;;
61642;SDS011;47551;52.506;4.678;2023-07-31T00:14:09;12.43;;;4.30;;
61642;SDS011;47551;52.506;4.678;2023-07-31T00:14:29;12.53;;;4.00;;
61642;SDS011;47551;52.506;4.678;2023-07-31T00:14:50;11.13;;;4.00;;
61642;SDS011;47551;52.506;4.678;2023-07-31T00:15:10;11.33;;;4.10;;
61642;SDS011;47551;52.506;4.678;2023-07-31T00:15:30;12.03;;;4.03;;
61642;SDS011;47551;52.506;4.678;2023-07-31T00:15:54;12.52;;;4.10;;
61642;SDS011;47551;52.506;4.678;2023-07-31T00:16:14;12.13;;;4.18;;
61642;SDS011;47551;52.506;4.678;2023-07-31T00:16:35;14.00;;;4.35;;
61642;SDS011;47551;52.506;4.678;2023-07-31T00:16:55;12.17;;;4.17;;
61642;SDS011;47551;52.506;4.678;2023-07-31T00:17:16;12.18;;;4.13;;
61642;SDS011;47551;52.506;4.678;2023-07-31T00:17:37;12.70;;;4.30;;
61642;SDS011;47551;52.506;4.678;2023-07-31T00:18:09;11.85;;;3.75;;
61642;SDS011;47551;52.506;4.678;2023-07-31T00:18:30;10.43;;;3.90;;
61642;SDS011;47551;52.506;4.678;2023-07-31T00:18:50;12.55;;;3.90;;
61642;SDS011;47551;52.506;4.678;2023-07-31T00:19:10;11.93;;;3.77;;
61642;SDS011;47551;52.506;4.678;2023-07-31T00:19:33;11.88;;;3.97;;
61642;SDS011;47551;52.506;4.678;2023-07-31T00:19:53;11.07;;;3.80;;
61642;SDS011;47551;52.506;4.678;2023-07-31T00:20:14;11.77;;;3.90;;
61642;SDS011;47551;52.506;4.678;2023-07-31T00:20:34;11.65;;;4.20;;
61642;SDS011;47551;52.506;4.678;2023-07-31T00:20:54;10.83;;;4.00;;
61642;SDS011;47551;52.506;4.678;2023-07-31T00:21:15;12.50;;;4.03;;
61642;SDS011;47551;52.506;4.678;2023-07-31T00:21:35;13.80;;;3.97;;
61642;SDS011;47551;52.506;4.678;2023-07-31T00:21:56;10.80;;;3.83;;
61642;SDS011;47551;52.506;4.678;2023-07-31T00:22:16;13.85;;;4.28;;
61642;SDS011;47551;52.506;4.678;2023-07-31T00:22:36;11.93;;;4.13;;
61642;SDS011;47551;52.506;4.678;2023-07-31T00:22:57;13.10;;;4.30;;
61642;SDS011;47551;52.506;4.678;2023-07-31T00:23:17;11.40;;;3.95;;
61642;SDS011;47551;52.506;4.678;2023-07-31T00:23:37;11.57;;;3.60;;
61642;SDS011;47551;52.506;4.678;2023-07-31T00:23:57;12.80;;;4.00;;
61642;SDS011;47551;52.506;4.678;2023-07-31T00:24:20;10.38;;;3.78;;
61642;SDS011;47551;52.506;4.678;2023-07-31T00:24:41;12.57;;;4.07;;
61642;SDS011;47551;52.506;4.678;2023-07-31T00:25:01;12.83;;;4.10;;
61642;SDS011;47551;52.506;4.678;2023-07-31T00:25:22;11.60;;;3.90;;
61642;SDS011;47551;52.506;4.678;2023-07-31T00:25:42;11.87;;;3.90;;
61642;SDS011;47551;52.506;4.678;2023-07-31T00:26:05;12.85;;;4.03;;
61642;SDS011;47551;52.506;4.678;2023-07-31T00:26:25;10.50;;;4.00;;
61642;SDS011;47551;52.506;4.678;2023-07-31T00:26:45;13.00;;;4.30;;
61642;SDS011;47551;52.506;4.678;2023-07-31T00:27:06;14.63;;;4.50;;
61642;SDS011;47551;52.506;4.678;2023-07-31T00:27:26;14.90;;;4.20;;
61642;SDS011;47551;52.506;4.678;2023-07-31T00:27:46;13.13;;;4.20;;
61642;SDS011;47551;52.506;4.678;2023-07-31T00:28:07;11.37;;;4.27;;
61642;SDS011;47551;52.506;4.678;2023-07-31T00:28:27;12.60;;;4.47;;
61642;SDS011;47551;52.506;4.678;2023-07-31T00:28:48;14.52;;;4.65;;
61642;SDS011;47551;52.506;4.678;2023-07-31T00:29:09;13.70;;;4.33;;
61642;SDS011;47551;52.506;4.678;2023-07-31T00:29:29;10.80;;;3.92;;
61642;SDS011;47551;52.506;4.678;2023-07-31T00:29:49;13.13;;;4.07;;
61642;SDS011;47551;52.506;4.678;2023-07-31T00:30:10;11.60;;;4.07;;
61642;SDS011;47551;52.506;4.678;2023-07-31T00:30:33;12.23;;;4.22;;
61642;SDS011;47551;52.506;4.678;2023-07-31T00:30:53;11.57;;;4.03;;
61642;SDS011;47551;52.506;4.678;2023-07-31T00:31:14;11.87;;;4.40;;
61642;SDS011;47551;52.506;4.678;2023-07-31T00:31:34;13.53;;;4.67;;
61642;SDS011;47551;52.506;4.678;2023-07-31T00:31:54;12.07;;;4.20;;
61642;SDS011;47551;52.506;4.678;2023-07-31T00:32:17;10.85;;;4.13;;
61642;SDS011;47551;52.506;4.678;2023-07-31T00:32:40;13.40;;;4.10;;
61642;SDS011;47551;52.506;4.678;2023-07-31T00:33:01;12.38;;;3.97;;
61642;SDS011;47551;52.506;4.678;2023-07-31T00:33:21;12.37;;;4.00;;
61642;SDS011;47551;52.506;4.678;2023-07-31T00:33:41;9.73;;;4.03;;
61642;SDS011;47551;52.506;4.678;2023-07-31T00:34:02;13.05;;;4.05;;
61642;SDS011;47551;52.506;4.678;2023-07-31T00:34:22;13.93;;;4.27;;
61642;SDS011;47551;52.506;4.678;2023-07-31T00:34:45;13.48;;;4.22;;
61642;SDS011;47551;52.506;4.678;2023-07-31T00:35:06;15.98;;;4.50;;
61642;SDS011;47551;52.506;4.678;2023-07-31T00:35:26;14.17;;;4.30;;
61642;SDS011;47551;52.506;4.678;2023-07-31T00:35:48;10.50;;;4.30;;
61642;SDS011;47551;52.506;4.678;2023-07-31T00:36:11;14.65;;;4.35;;
61642;SDS011;47551;52.506;4.678;2023-07-31T00:36:35;12.55;;;4.20;;
61642;SDS011;47551;52.506;4.678;2023-07-31T00:37:21;12.52;;;4.43;;
61642;SDS011;47551;52.506;4.678;2023-07-31T00:37:41;13.60;;;4.53;;
61642;SDS011;47551;52.506;4.678;2023-07-31T00:38:02;11.93;;;4.17;;
61642;SDS011;47551;52.506;4.678;2023-07-31T00:38:22;14.43;;;4.30;;
61642;SDS011;47551;52.506;4.678;2023-07-31T00:38:45;12.75;;;4.15;;
61642;SDS011;47551;52.506;4.678;2023-07-31T00:39:09;11.02;;;3.95;;
61642;SDS011;47551;52.506;4.678;2023-07-31T00:39:30;11.02;;;4.05;;
61642;SDS011;47551;52.506;4.678;2023-07-31T00:39:50;10.80;;;4.35;;
61642;SDS011;47551;52.506;4.678;2023-07-31T00:40:13;12.97;;;4.40;;
61642;SDS011;47551;52.506;4.678;2023-07-31T00:40:37;12.95;;;4.47;;
61642;SDS011;47551;52.506;4.678;2023-07-31T00:40:57;15.00;;;4.60;;
61642;SDS011;47551;52.506;4.678;2023-07-31T00:41:17;14.80;;;4.67;;
61642;SDS011;47551;52.506;4.678;2023-07-31T00:41:38;12.33;;;4.30;;
61642;SDS011;47551;52.506;4.678;2023-07-31T00:42:01;11.00;;;4.03;;
61642;SDS011;47551;52.506;4.678;2023-07-31T00:42:24;10.85;;;4.30;;
61642;SDS011;47551;52.506;4.678;2023-07-31T00:42:45;10.47;;;4.47;;
61642;SDS011;47551;52.506;4.678;2023-07-31T00:43:05;11.10;;;4.50;;
61642;SDS011;47551;52.506;4.678;2023-07-31T00:43:25;12.33;;;4.43;;
61642;SDS011;47551;52.506;4.678;2023-07-31T00:43:46;12.00;;;4.30;;
61642;SDS011;47551;52.506;4.678;2023-07-31T00:44:06;13.30;;;4.73;;
61642;SDS011;47551;52.506;4.678;2023-07-31T00:44:26;13.03;;;4.53;;
61642;SDS011;47551;52.506;4.678;2023-07-31T00:44:47;13.70;;;4.70;;
61642;SDS011;47551;52.506;4.678;2023-07-31T00:45:07;14.50;;;4.73;;
61642;SDS011;47551;52.506;4.678;2023-07-31T00:45:28;15.13;;;4.78;;
61642;SDS011;47551;52.506;4.678;2023-07-31T00:45:48;12.27;;;4.88;;
61642;SDS011;47551;52.506;4.678;2023-07-31T00:46:09;13.87;;;5.17;;
61642;SDS011;47551;52.506;4.678;2023-07-31T00:46:32;14.55;;;5.00;;
61642;SDS011;47551;52.506;4.678;2023-07-31T00:46:52;14.53;;;4.90;;
61642;SDS011;47551;52.506;4.678;2023-07-31T00:47:13;15.57;;;5.18;;
61642;SDS011;47551;52.506;4.678;2023-07-31T00:47:34;16.33;;;5.33;;
61642;SDS011;47551;52.506;4.678;2023-07-31T00:47:57;14.30;;;5.50;;
61642;SDS011;47551;52.506;4.678;2023-07-31T00:48:18;14.38;;;4.80;;
61642;SDS011;47551;52.506;4.678;2023-07-31T00:48:38;14.23;;;5.17;;
61642;SDS011;47551;52.506;4.678;2023-07-31T00:48:59;13.32;;;5.10;;
61642;SDS011;47551;52.506;4.678;2023-07-31T00:49:20;13.80;;;5.10;;
61642;SDS011;47551;52.506;4.678;2023-07-31T00:49:43;14.35;;;4.97;;
61642;SDS011;47551;52.506;4.678;2023-07-31T00:50:04;12.77;;;4.53;;
61642;SDS011;47551;52.506;4.678;2023-07-31T00:50:25;14.32;;;4.93;;
61642;SDS011;47551;52.506;4.678;2023-07-31T00:50:48;13.02;;;4.90;;
61642;SDS011;47551;52.506;4.678;2023-07-31T00:51:08;12.25;;;4.78;;
61642;SDS011;47551;52.506;4.678;2023-07-31T00:51:29;14.77;;;5.00;;
61642;SDS011;47551;52.506;4.678;2023-07-31T00:51:49;15.67;;;5.50;;
61642;SDS011;47551;52.506;4.678;2023-07-31T00:52:15;18.10;;;6.07;;
61642;SDS011;47551;52.506;4.678;2023-07-31T00:52:36;14.82;;;5.90;;
61642;SDS011;47551;52.506;4.678;2023-07-31T00:52:59;17.67;;;6.55;;
61642;SDS011;47551;52.506;4.678;2023-07-31T00:53:20;20.40;;;7.43;;
61642;SDS011;47551;52.506;4.678;2023-07-31T00:53:40;19.60;;;7.63;;
61642;SDS011;47551;52.506;4.678;2023-07-31T00:54:01;18.23;;;7.50;;
61642;SDS011;47551;52.506;4.678;2023-07-31T00:54:23;16.83;;;7.63;;
61642;SDS011;47551;52.506;4.678;2023-07-31T00:54:53;18.48;;;7.32;;
61642;SDS011;47551;52.506;4.678;2023-07-31T00:55:19;18.38;;;8.32;;
61642;SDS011;47551;52.506;4.678;2023-07-31T00:55:42;19.93;;;8.10;;
61642;SDS011;47551;52.506;4.678;2023-07-31T00:56:03;17.67;;;7.75;;
61642;SDS011;47551;52.506;4.678;2023-07-31T00:56:26;18.67;;;7.37;;
61642;SDS011;47551;52.506;4.678;2023-07-31T00:56:48;16.17;;;6.95;;
61642;SDS011;47551;52.506;4.678;2023-07-31T00:57:10;15.98;;;6.70;;
61642;SDS011;47551;52.506;4.678;2023-07-31T00:57:37;17.75;;;6.65;;
61642;SDS011;47551;52.506;4.678;2023-07-31T00:58:03;19.30;;;6.47;;
61642;SDS011;47551;52.506;4.678;2023-07-31T00:58:24;18.07;;;6.90;;
61642;SDS011;47551;52.506;4.678;2023-07-31T00:58:44;17.45;;;7.00;;
61642;SDS011;47551;52.506;4.678;2023-07-31T00:59:05;17.33;;;6.67;;
61642;SDS011;47551;52.506;4.678;2023-07-31T00:59:25;16.58;;;7.07;;
61642;SDS011;47551;52.506;4.678;2023-07-31T00:59:45;18.40;;;6.93;;
61642;SDS011;47551;52.506;4.678;2023-07-31T01:00:06;18.95;;;7.18;;
61642;SDS011;47551;52.506;4.678;2023-07-31T01:00:27;19.05;;;7.07;;
61642;SDS011;47551;52.506;4.678;2023-07-31T01:00:50;20.73;;;7.60;;
61642;SDS011;47551;52.506;4.678;2023-07-31T01:01:13;18.88;;;7.10;;
61642;SDS011;47551;52.506;4.678;2023-07-31T01:01:34;18.67;;;6.37;;
61642;SDS011;47551;52.506;4.678;2023-07-31T01:01:54;19.03;;;6.20;;
61642;SDS011;47551;52.506;4.678;2023-07-31T01:02:15;17.60;;;6.33;;
61642;SDS011;47551;52.506;4.678;2023-07-31T01:02:35;18.00;;;6.37;;
61642;SDS011;47551;52.506;4.678;2023-07-31T01:02:56;14.50;;;6.00;;
61642;SDS011;47551;52.506;4.678;2023-07-31T01:03:17;14.45;;;6.18;;
61642;SDS011;47551;52.506;4.678;2023-07-31T01:03:40;17.70;;;6.25;;
61642;SDS011;47551;52.506;4.678;2023-07-31T01:04:00;16.90;;;6.25;;
61642;SDS011;47551;52.506;4.678;2023-07-31T01:04:21;16.77;;;6.70;;
61642;SDS011;47551;52.506;4.678;2023-07-31T01:04:44;16.08;;;6.32;;
61642;SDS011;47551;52.506;4.678;2023-07-31T01:05:05;17.33;;;6.22;;
61642;SDS011;47551;52.506;4.678;2023-07-31T01:05:33;17.00;;;6.67;;
61642;SDS011;47551;52.506;4.678;2023-07-31T01:07:12;18.43;;;7.13;;
61642;SDS011;47551;52.506;4.678;2023-07-31T01:07:58;19.23;;;6.53;;
61642;SDS011;47551;52.506;4.678;2023-07-31T01:09:03;18.92;;;6.30;;
61642;SDS011;47551;52.506;4.678;2023-07-31T01:09:33;16.73;;;6.95;;
61642;SDS011;47551;52.506;4.678;2023-07-31T01:10:05;18.15;;;7.25;;
61642;SDS011;47551;52.506;4.678;2023-07-31T01:10:33;19.73;;;6.80;;
61642;SDS011;47551;52.506;4.678;2023-07-31T01:11:00;16.85;;;6.50;;
61642;SDS011;47551;52.506;4.678;2023-07-31T01:11:31;19.38;;;6.75;;
61642;SDS011;47551;52.506;4.678;2023-07-31T01:11:56;20.98;;;6.93;;
61642;SDS011;47551;52.506;4.678;2023-07-31T01:12:17;19.38;;;7.20;;
61642;SDS011;47551;52.506;4.678;2023-07-31T01:12:40;16.90;;;6.80;;
61642;SDS011;47551;52.506;4.678;2023-07-31T01:13:01;19.48;;;7.22;;
61642;SDS011;47551;52.506;4.678;2023-07-31T01:13:23;18.48;;;7.00;;
61642;SDS011;47551;52.506;4.678;2023-07-31T01:13:47;18.27;;;7.28;;
61642;SDS011;47551;52.506;4.678;2023-07-31T01:14:08;18.48;;;7.00;;
61642;SDS011;47551;52.506;4.678;2023-07-31T01:14:28;18.50;;;6.83;;
61642;SDS011;47551;52.506;4.678;2023-07-31T01:15:01;19.02;;;7.10;;
61642;SDS011;47551;52.506;4.678;2023-07-31T01:15:35;19.23;;;7.32;;
61642;SDS011;47551;52.506;4.678;2023-07-31T01:15:55;19.03;;;7.27;;
61642;SDS011;47551;52.506;4.678;2023-07-31T01:16:15;18.65;;;7.35;;
61642;SDS011;47551;52.506;4.678;2023-07-31T01:16:36;19.77;;;7.50;;
61642;SDS011;47551;52.506;4.678;2023-07-31T01:16:56;20.67;;;7.30;;
61642;SDS011;47551;52.506;4.678;2023-07-31T01:17:16;20.75;;;7.18;;
61642;SDS011;47551;52.506;4.678;2023-07-31T01:17:37;21.20;;;7.23;;
61642;SDS011;47551;52.506;4.678;2023-07-31T01:17:58;18.33;;;7.65;;
61642;SDS011;47551;52.506;4.678;2023-07-31T01:18:18;18.13;;;7.67;;
61642;SDS011;47551;52.506;4.678;2023-07-31T01:18:39;19.33;;;7.53;;
61642;SDS011;47551;52.506;4.678;2023-07-31T01:18:59;20.95;;;7.28;;
61642;SDS011;47551;52.506;4.678;2023-07-31T01:19:22;19.13;;;7.00;;
61642;SDS011;47551;52.506;4.678;2023-07-31T01:19:43;16.67;;;7.03;;
61642;SDS011;47551;52.506;4.678;2023-07-31T01:20:26;17.20;;;7.05;;
61642;SDS011;47551;52.506;4.678;2023-07-31T01:20:46;22.13;;;7.70;;
61642;SDS011;47551;52.506;4.678;2023-07-31T01:24:18;18.83;;;7.03;;
61642;SDS011;47551;52.506;4.678;2023-07-31T01:24:46;21.40;;;7.10;;
61642;SDS011;47551;52.506;4.678;2023-07-31T01:26:33;21.50;;;7.75;;
61642;SDS011;47551;52.506;4.678;2023-07-31T01:26:57;20.92;;;7.75;;
61642;SDS011;47551;52.506;4.678;2023-07-31T01:27:24;20.85;;;7.70;;
61642;SDS011;47551;52.506;4.678;2023-07-31T01:27:56;21.58;;;7.68;;
61642;SDS011;47551;52.506;4.678;2023-07-31T01:28:35;20.30;;;7.38;;
61642;SDS011;47551;52.506;4.678;2023-07-31T01:29:48;23.42;;;8.05;;
61642;SDS011;47551;52.506;4.678;2023-07-31T01:30:11;24.45;;;8.05;;
61642;SDS011;47551;52.506;4.678;2023-07-31T01:30:37;19.58;;;7.55;;
61642;SDS011;47551;52.506;4.678;2023-07-31T01:31:03;19.67;;;7.78;;
61642;SDS011;47551;52.506;4.678;2023-07-31T01:31:28;20.85;;;8.15;;
61642;SDS011;47551;52.506;4.678;2023-07-31T01:31:49;19.75;;;8.07;;
61642;SDS011;47551;52.506;4.678;2023-07-31T01:32:13;22.98;;;7.47;;
61642;SDS011;47551;52.506;4.678;2023-07-31T01:32:34;22.48;;;8.38;;
61642;SDS011;47551;52.506;4.678;2023-07-31T01:32:55;21.38;;;7.95;;
61642;SDS011;47551;52.506;4.678;2023-07-31T01:33:16;22.13;;;8.63;;
61642;SDS011;47551;52.506;4.678;2023-07-31T01:33:37;22.80;;;7.82;;
61642;SDS011;47551;52.506;4.678;2023-07-31T01:34:00;22.63;;;7.70;;
61642;SDS011;47551;52.506;4.678;2023-07-31T01:34:21;23.17;;;8.25;;
61642;SDS011;47551;52.506;4.678;2023-07-31T01:34:45;20.75;;;7.70;;
61642;SDS011;47551;52.506;4.678;2023-07-31T01:35:07;21.92;;;7.88;;
61642;SDS011;47551;52.506;4.678;2023-07-31T01:35:28;23.83;;;7.53;;
61642;SDS011;47551;52.506;4.678;2023-07-31T01:35:48;20.80;;;7.18;;
61642;SDS011;47551;52.506;4.678;2023-07-31T01:36:10;19.25;;;7.82;;
61642;SDS011;47551;52.506;4.678;2023-07-31T01:36:31;19.40;;;7.85;;
61642;SDS011;47551;52.506;4.678;2023-07-31T01:36:52;20.83;;;7.93;;
61642;SDS011;47551;52.506;4.678;2023-07-31T01:37:12;20.30;;;7.35;;
61642;SDS011;47551;52.506;4.678;2023-07-31T01:37:32;16.93;;;6.70;;
61642;SDS011;47551;52.506;4.678;2023-07-31T01:37:53;18.70;;;6.93;;
61642;SDS011;47551;52.506;4.678;2023-07-31T01:38:14;18.33;;;7.35;;
61642;SDS011;47551;52.506;4.678;2023-07-31T01:38:34;18.50;;;7.38;;
61642;SDS011;47551;52.506;4.678;2023-07-31T01:38:58;18.43;;;7.30;;
61642;SDS011;47551;52.506;4.678;2023-07-31T01:39:23;20.27;;;7.43;;
61642;SDS011;47551;52.506;4.678;2023-07-31T01:39:43;19.42;;;6.85;;
61642;SDS011;47551;52.506;4.678;2023-07-31T01:40:04;18.37;;;7.10;;
61642;SDS011;47551;52.506;4.678;2023-07-31T01:40:27;18.23;;;6.85;;
61642;SDS011;47551;52.506;4.678;2023-07-31T01:40:51;18.60;;;7.20;;
61642;SDS011;47551;52.506;4.678;2023-07-31T01:41:12;17.55;;;7.32;;
61642;SDS011;47551;52.506;4.678;2023-07-31T01:41:33;20.92;;;8.10;;
61642;SDS011;47551;52.506;4.678;2023-07-31T01:41:54;18.75;;;7.88;;
61642;SDS011;47551;52.506;4.678;2023-07-31T01:42:14;21.90;;;8.13;;
61642;SDS011;47551;52.506;4.678;2023-07-31T01:42:34;20.50;;;8.20;;
61642;SDS011;47551;52.506;4.678;2023-07-31T01:43:01;21.23;;;8.02;;
61642;SDS011;47551;52.506;4.678;2023-07-31T01:43:21;18.73;;;7.30;;
61642;SDS011;47551;52.506;4.678;2023-07-31T01:43:41;19.33;;;7.25;;
61642;SDS011;47551;52.506;4.678;2023-07-31T01:44:05;19.17;;;6.80;;
61642;SDS011;47551;52.506;4.678;2023-07-31T01:44:25;18.20;;;6.68;;
61642;SDS011;47551;52.506;4.678;2023-07-31T01:44:46;14.60;;;5.57;;
61642;SDS011;47551;52.506;4.678;2023-07-31T01:45:06;12.20;;;5.20;;
61642;SDS011;47551;52.506;4.678;2023-07-31T01:45:30;12.73;;;5.00;;
61642;SDS011;47551;52.506;4.678;2023-07-31T01:45:50;12.93;;;4.57;;
61642;SDS011;47551;52.506;4.678;2023-07-31T01:46:13;13.20;;;4.35;;
61642;SDS011;47551;52.506;4.678;2023-07-31T01:46:36;12.15;;;4.30;;
61642;SDS011;47551;52.506;4.678;2023-07-31T01:46:56;10.30;;;3.97;;
61642;SDS011;47551;52.506;4.678;2023-07-31T01:47:21;9.02;;;3.40;;
61642;SDS011;47551;52.506;4.678;2023-07-31T01:47:43;10.88;;;3.72;;
61642;SDS011;47551;52.506;4.678;2023-07-31T01:48:03;12.77;;;3.77;;
61642;SDS011;47551;52.506;4.678;2023-07-31T01:48:27;15.18;;;4.25;;
61642;SDS011;47551;52.506;4.678;2023-07-31T01:48:47;11.93;;;4.00;;
61642;SDS011;47551;52.506;4.678;2023-07-31T01:49:07;9.87;;;3.93;;
61642;SDS011;47551;52.506;4.678;2023-07-31T01:49:28;11.50;;;4.22;;
61642;SDS011;47551;52.506;4.678;2023-07-31T01:49:51;10.60;;;3.75;;
61642;SDS011;47551;52.506;4.678;2023-07-31T01:50:11;12.90;;;4.10;;
61642;SDS011;47551;52.506;4.678;2023-07-31T01:50:34;14.98;;;4.93;;
61642;SDS011;47551;52.506;4.678;2023-07-31T01:50:54;15.60;;;5.37;;
61642;SDS011;47551;52.506;4.678;2023-07-31T01:51:15;16.35;;;5.97;;
61642;SDS011;47551;52.506;4.678;2023-07-31T01:51:35;18.10;;;5.97;;
61642;SDS011;47551;52.506;4.678;2023-07-31T01:51:55;21.07;;;6.97;;
61642;SDS011;47551;52.506;4.678;2023-07-31T01:52:16;21.20;;;7.40;;
61642;SDS011;47551;52.506;4.678;2023-07-31T01:52:36;18.47;;;7.20;;
61642;SDS011;47551;52.506;4.678;2023-07-31T01:52:56;20.63;;;7.50;;
61642;SDS011;47551;52.506;4.678;2023-07-31T01:53:17;22.07;;;7.70;;
61642;SDS011;47551;52.506;4.678;2023-07-31T01:53:37;23.08;;;8.20;;
61642;SDS011;47551;52.506;4.678;2023-07-31T01:53:57;23.00;;;8.23;;
61642;SDS011;47551;52.506;4.678;2023-07-31T01:54:18;21.47;;;8.13;;
61642;SDS011;47551;52.506;4.678;2023-07-31T01:54:38;23.65;;;8.63;;
61642;SDS011;47551;52.506;4.678;2023-07-31T01:54:59;22.20;;;8.27;;
61642;SDS011;47551;52.506;4.678;2023-07-31T01:55:19;24.93;;;8.60;;
61642;SDS011;47551;52.506;4.678;2023-07-31T01:55:39;21.02;;;8.35;;
61642;SDS011;47551;52.506;4.678;2023-07-31T01:55:59;19.73;;;8.67;;
61642;SDS011;47551;52.506;4.678;2023-07-31T01:56:22;22.80;;;8.98;;
61642;SDS011;47551;52.506;4.678;2023-07-31T01:56:46;25.80;;;9.07;;
61642;SDS011;47551;52.506;4.678;2023-07-31T01:57:06;24.95;;;8.98;;
61642;SDS011;47551;52.506;4.678;2023-07-31T01:57:26;27.73;;;9.30;;
61642;SDS011;47551;52.506;4.678;2023-07-31T01:57:47;29.00;;;9.38;;
61642;SDS011;47551;52.506;4.678;2023-07-31T01:58:10;22.90;;;9.38;;
61642;SDS011;47551;52.506;4.678;2023-07-31T01:58:30;23.17;;;9.70;;
61642;SDS011;47551;52.506;4.678;2023-07-31T01:58:53;26.67;;;9.57;;
61642;SDS011;47551;52.506;4.678;2023-07-31T01:59:16;22.27;;;9.68;;
61642;SDS011;47551;52.506;4.678;2023-07-31T01:59:39;25.08;;;9.15;;
61642;SDS011;47551;52.506;4.678;2023-07-31T02:00:03;25.13;;;9.75;;
61642;SDS011;47551;52.506;4.678;2023-07-31T02:00:24;23.33;;;9.77;;
61642;SDS011;47551;52.506;4.678;2023-07-31T02:00:44;26.20;;;9.80;;
61642;SDS011;47551;52.506;4.678;2023-07-31T02:01:06;25.77;;;10.27;;
61642;SDS011;47551;52.506;4.678;2023-07-31T02:01:26;28.90;;;10.70;;
61642;SDS011;47551;52.506;4.678;2023-07-31T02:01:46;25.45;;;9.73;;
61642;SDS011;47551;52.506;4.678;2023-07-31T02:02:07;24.60;;;9.70;;
61642;SDS011;47551;52.506;4.678;2023-07-31T02:02:27;23.43;;;9.27;;
61642;SDS011;47551;52.506;4.678;2023-07-31T02:02:47;21.77;;;9.20;;
61642;SDS011;47551;52.506;4.678;2023-07-31T02:03:08;20.17;;;9.00;;
61642;SDS011;47551;52.506;4.678;2023-07-31T02:03:28;24.00;;;8.90;;
61642;SDS011;47551;52.506;4.678;2023-07-31T02:03:48;25.73;;;9.50;;
61642;SDS011;47551;52.506;4.678;2023-07-31T02:04:12;25.57;;;9.50;;
61642;SDS011;47551;52.506;4.678;2023-07-31T02:04:32;24.63;;;9.13;;
61642;SDS011;47551;52.506;4.678;2023-07-31T02:04:52;25.70;;;9.20;;
61642;SDS011;47551;52.506;4.678;2023-07-31T02:05:13;22.93;;;9.50;;
61642;SDS011;47551;52.506;4.678;2023-07-31T02:05:33;23.88;;;9.23;;
61642;SDS011;47551;52.506;4.678;2023-07-31T02:05:53;23.37;;;9.13;;
61642;SDS011;47551;52.506;4.678;2023-07-31T02:06:14;22.35;;;9.30;;
61642;SDS011;47551;52.506;4.678;2023-07-31T02:06:35;22.30;;;9.45;;
61642;SDS011;47551;52.506;4.678;2023-07-31T02:06:55;21.93;;;9.30;;
61642;SDS011;47551;52.506;4.678;2023-07-31T02:07:15;22.13;;;9.23;;
61642;SDS011;47551;52.506;4.678;2023-07-31T02:07:36;24.92;;;8.80;;
61642;SDS011;47551;52.506;4.678;2023-07-31T02:07:56;23.00;;;8.60;;
61642;SDS011;47551;52.506;4.678;2023-07-31T02:08:16;22.30;;;9.03;;
61642;SDS011;47551;52.506;4.678;2023-07-31T02:08:37;24.92;;;8.98;;
61642;SDS011;47551;52.506;4.678;2023-07-31T02:08:57;24.23;;;8.70;;
61642;SDS011;47551;52.506;4.678;2023-07-31T02:09:17;25.02;;;8.82;;
61642;SDS011;47551;52.506;4.678;2023-07-31T02:09:38;23.37;;;9.07;;
61642;SDS011;47551;52.506;4.678;2023-07-31T02:09:58;23.03;;;8.67;;
61642;SDS011;47551;52.506;4.678;2023-07-31T02:10:18;28.63;;;8.73;;
61642;SDS011;47551;52.506;4.678;2023-07-31T02:10:39;27.83;;;8.97;;
61642;SDS011;47551;52.506;4.678;2023-07-31T02:10:59;23.00;;;8.67;;
61642;SDS011;47551;52.506;4.678;2023-07-31T02:11:22;23.67;;;8.27;;
61642;SDS011;47551;52.506;4.678;2023-07-31T02:11:42;25.42;;;8.77;;
61642;SDS011;47551;52.506;4.678;2023-07-31T02:12:03;21.57;;;8.77;;
61642;SDS011;47551;52.506;4.678;2023-07-31T02:12:23;20.02;;;8.60;;
61642;SDS011;47551;52.506;4.678;2023-07-31T02:12:43;22.13;;;8.77;;
61642;SDS011;47551;52.506;4.678;2023-07-31T02:13:04;20.80;;;8.50;;
61642;SDS011;47551;52.506;4.678;2023-07-31T02:13:24;21.38;;;8.43;;
61642;SDS011;47551;52.506;4.678;2023-07-31T02:13:45;21.67;;;8.40;;
61642;SDS011;47551;52.506;4.678;2023-07-31T02:14:08;19.85;;;8.50;;
61642;SDS011;47551;52.506;4.678;2023-07-31T02:14:28;24.40;;;8.80;;
61642;SDS011;47551;52.506;4.678;2023-07-31T02:14:48;24.57;;;8.90;;
61642;SDS011;47551;52.506;4.678;2023-07-31T02:15:09;24.50;;;9.03;;
61642;SDS011;47551;52.506;4.678;2023-07-31T02:15:29;23.23;;;8.68;;
61642;SDS011;47551;52.506;4.678;2023-07-31T02:15:50;22.38;;;8.65;;
61642;SDS011;47551;52.506;4.678;2023-07-31T02:16:11;21.73;;;8.05;;
61642;SDS011;47551;52.506;4.678;2023-07-31T02:16:31;20.30;;;8.17;;
61642;SDS011;47551;52.506;4.678;2023-07-31T02:16:51;22.20;;;8.63;;
61642;SDS011;47551;52.506;4.678;2023-07-31T02:17:12;23.33;;;9.32;;